createdAt,value
2023-05-16T00:00:01.292Z,51961.64
2023-05-16T00:02:33.039Z,51959.23
2023-05-16T00:05:05.213Z,51967.67
2023-05-16T00:07:37.009Z,51950.79
2023-05-16T00:10:07.684Z,51957.63
2023-05-16T00:12:39.811Z,51957.22
2023-05-16T00:15:14.178Z,51975.71
2023-05-16T00:17:46.476Z,51964.86
2023-05-16T00:20:23.373Z,51966.46
2023-05-16T00:22:55.536Z,51975.30
2023-05-16T00:25:27.236Z,51962.84
2023-05-16T00:27:56.997Z,51961.64
2023-05-16T00:30:28.624Z,51968.07
2023-05-16T00:33:00.379Z,51956.41
2023-05-16T00:35:31.904Z,51968.07
2023-05-16T00:38:03.238Z,51974.10
2023-05-16T00:40:34.657Z,51961.24
2023-05-16T00:43:06.665Z,51974.90
2023-05-16T00:45:38.353Z,51978.12
2023-05-16T00:48:09.590Z,51969.27
2023-05-16T00:50:41.127Z,51971.29
2023-05-16T00:53:12.468Z,51968.47
2023-05-16T00:55:44.148Z,51982.13
2023-05-16T00:58:16.289Z,51963.25
2023-05-16T01:00:48.901Z,51969.68
2023-05-16T01:03:20.757Z,51974.90
2023-05-16T01:05:52.166Z,51978.92
2023-05-16T01:08:24.540Z,51973.70
2023-05-16T01:11:04.211Z,51972.49
2023-05-16T01:13:38.451Z,51974.10
2023-05-16T01:16:14.910Z,51979.32
2023-05-16T01:18:58.689Z,51958.83
2023-05-16T01:21:36.335Z,51964.05
2023-05-16T01:24:15.070Z,51970.88
2023-05-16T01:26:46.721Z,51986.55
2023-05-16T01:29:16.615Z,51985.75
2023-05-16T01:31:48.601Z,51971.29
2023-05-16T01:34:20.117Z,51977.71
2023-05-16T01:36:54.729Z,51981.73
2023-05-16T01:39:33.762Z,51984.54
2023-05-16T01:42:07.454Z,51990.17
2023-05-16T01:44:42.973Z,51987.76
2023-05-16T01:47:16.982Z,51988.16
2023-05-16T01:49:52.080Z,51981.73
2023-05-16T01:52:27.846Z,51969.68
2023-05-16T01:54:59.484Z,51997.00
2023-05-16T01:57:32.050Z,51987.36
2023-05-16T02:00:03.561Z,51963.65
2023-05-16T02:02:36.221Z,51977.71
2023-05-16T02:05:08.560Z,51973.70
2023-05-16T02:07:41.456Z,51977.71
2023-05-16T02:10:12.542Z,51987.36
2023-05-16T02:12:43.980Z,51986.55
2023-05-16T02:15:15.528Z,51984.54
2023-05-16T02:17:47.685Z,51972.49
2023-05-16T02:20:20.304Z,51986.15
2023-05-16T02:22:51.808Z,51990.18
2023-05-16T02:25:23.370Z,51985.75
2023-05-16T02:27:54.820Z,51977.31
2023-05-16T02:30:26.472Z,51979.32
2023-05-16T02:32:58.098Z,51985.75
2023-05-16T02:35:29.686Z,51973.29
2023-05-16T02:37:59.644Z,51982.54
2023-05-16T02:40:31.637Z,51964.45
2023-05-16T02:43:03.271Z,51978.92
2023-05-16T02:45:35.354Z,51993.39
2023-05-16T02:48:07.231Z,51980.13
2023-05-16T02:50:40.600Z,51973.30
2023-05-16T02:53:12.162Z,51991.78
2023-05-16T02:55:43.601Z,51976.91
2023-05-16T02:58:14.998Z,51985.75
2023-05-16T03:00:46.398Z,51974.10
2023-05-16T03:03:18.084Z,51989.77
2023-05-16T03:05:48.938Z,51996.60
2023-05-16T03:08:20.451Z,52001.43
2023-05-16T03:10:51.957Z,51988.96
2023-05-16T03:13:23.676Z,52005.84
2023-05-16T03:15:55.004Z,51982.54
2023-05-16T03:18:26.431Z,51997.00
2023-05-16T03:20:58.411Z,51979.32
2023-05-16T03:23:29.918Z,51986.15
2023-05-16T03:26:01.391Z,51978.52
2023-05-16T03:28:32.839Z,51967.27
2023-05-16T03:31:04.426Z,51982.54
2023-05-16T03:33:35.986Z,51986.55
2023-05-16T03:36:07.723Z,51969.27
2023-05-16T03:38:37.669Z,51986.96
2023-05-16T03:41:09.319Z,51977.31
2023-05-16T03:43:39.383Z,51971.29
2023-05-16T03:46:11.072Z,51984.54
2023-05-16T03:48:40.843Z,51958.43
2023-05-16T03:51:12.412Z,51983.34
2023-05-16T03:53:42.977Z,51967.27
2023-05-16T03:56:14.362Z,51980.52
2023-05-16T03:58:45.908Z,51974.90
2023-05-16T04:01:17.464Z,51973.70
2023-05-16T04:03:48.818Z,51970.48
2023-05-16T04:06:20.265Z,51956.42
2023-05-16T04:08:51.725Z,51962.45
2023-05-16T04:11:23.043Z,51954.81
2023-05-16T04:13:55.392Z,51960.43
2023-05-16T04:16:26.837Z,51964.05
2023-05-16T04:18:59.699Z,51951.60
2023-05-16T04:21:31.201Z,51945.57
2023-05-16T04:24:02.733Z,51947.98
2023-05-16T04:26:34.831Z,51946.77
2023-05-16T04:29:06.227Z,51954.00
2023-05-16T04:31:37.940Z,51940.34
2023-05-16T04:34:07.788Z,51953.21
2023-05-16T04:36:39.150Z,51956.82
2023-05-16T04:39:10.674Z,51953.61
2023-05-16T04:41:42.731Z,51939.54
2023-05-16T04:44:14.062Z,51932.30
2023-05-16T04:46:45.464Z,51940.34
2023-05-16T04:49:16.925Z,51936.73
2023-05-16T04:51:48.492Z,51935.12
2023-05-16T04:54:20.430Z,51926.68
2023-05-16T04:56:51.858Z,51913.02
2023-05-16T04:59:23.262Z,51927.48
2023-05-16T05:01:54.925Z,51917.84
2023-05-16T05:04:24.995Z,51915.43
2023-05-16T05:06:56.966Z,51909.80
2023-05-16T05:09:28.352Z,51905.38
2023-05-16T05:11:59.900Z,51912.22
2023-05-16T05:14:31.716Z,51895.34
2023-05-16T05:17:03.498Z,51892.93
2023-05-16T05:19:35.223Z,51890.52
2023-05-16T05:22:07.233Z,51898.96
2023-05-16T05:24:38.788Z,51900.57
2023-05-16T05:27:08.802Z,51889.31
2023-05-16T05:29:41.644Z,51888.11
2023-05-16T05:32:13.283Z,51875.25
2023-05-16T05:34:45.270Z,51887.30
2023-05-16T05:37:16.829Z,51861.99
2023-05-16T05:39:48.513Z,51862.39
2023-05-16T05:42:20.092Z,51871.23
2023-05-16T05:44:51.681Z,51858.37
2023-05-16T05:47:23.303Z,51864.80
2023-05-16T05:49:55.037Z,51864.40
2023-05-16T05:52:24.917Z,51846.32
2023-05-16T05:54:56.624Z,51843.10
2023-05-16T05:57:28.485Z,51839.49
2023-05-16T06:00:00.383Z,51848.32
2023-05-16T06:02:32.214Z,51823.01
2023-05-16T06:05:04.387Z,51835.07
2023-05-16T06:07:36.123Z,51824.62
2023-05-16T06:10:09.284Z,51822.61
2023-05-16T06:12:40.988Z,51831.45
2023-05-16T06:15:14.406Z,51831.45
2023-05-16T06:17:46.207Z,51825.02
2023-05-16T06:20:18.297Z,51792.07
2023-05-16T06:22:49.914Z,51810.16
2023-05-16T06:25:21.799Z,51814.98
2023-05-16T06:27:53.854Z,51821.00
2023-05-16T06:30:25.585Z,51797.70
2023-05-16T06:32:55.409Z,51814.57
2023-05-16T06:35:27.214Z,51812.16
2023-05-16T06:37:59.365Z,51804.93
2023-05-16T06:40:30.745Z,51798.50
2023-05-16T06:43:02.806Z,51808.14
2023-05-16T06:45:34.308Z,51790.87
2023-05-16T06:48:05.907Z,51779.61
2023-05-16T06:50:38.131Z,51793.27
2023-05-16T06:53:12.747Z,51773.59
2023-05-16T06:55:44.996Z,51782.02
2023-05-16T06:58:16.656Z,51777.21
2023-05-16T07:00:46.832Z,51786.04
2023-05-16T07:03:19.079Z,51769.97
2023-05-16T07:05:53.202Z,51767.96
2023-05-16T07:08:26.192Z,51752.29
2023-05-16T07:10:57.735Z,51756.30
2023-05-16T07:13:27.909Z,51754.70
2023-05-16T07:16:00.727Z,51739.43
2023-05-16T07:18:32.369Z,51732.60
2023-05-16T07:21:04.042Z,51739.03
2023-05-16T07:23:35.935Z,51736.22
2023-05-16T07:26:07.648Z,51714.92
2023-05-16T07:28:39.223Z,51719.75
2023-05-16T07:31:10.697Z,51733.80
2023-05-16T07:33:42.438Z,51711.30
2023-05-16T07:36:17.254Z,51718.54
2023-05-16T07:38:49.477Z,51695.24
2023-05-16T07:41:22.001Z,51706.08
2023-05-16T07:43:53.595Z,51706.48
2023-05-16T07:46:23.448Z,51700.05
2023-05-16T07:48:55.061Z,51716.53
2023-05-16T07:51:24.869Z,51715.32
2023-05-16T07:53:56.370Z,51697.65
2023-05-16T07:56:28.147Z,51697.65
2023-05-16T07:58:58.089Z,51688.80
2023-05-16T08:01:29.727Z,51692.42
2023-05-16T08:04:01.359Z,51673.14
2023-05-16T08:06:34.319Z,51675.54
2023-05-16T08:09:06.184Z,51673.54
2023-05-16T08:11:37.713Z,51681.57
2023-05-16T08:14:07.469Z,51673.94
2023-05-16T08:16:39.118Z,51676.35
2023-05-16T08:19:11.026Z,51655.05
2023-05-16T08:21:42.621Z,51634.16
2023-05-16T08:24:14.825Z,51628.13
2023-05-16T08:26:47.593Z,51629.34
2023-05-16T08:29:18.067Z,51632.55
2023-05-16T08:31:50.038Z,51629.34
2023-05-16T08:34:22.152Z,51636.17
2023-05-16T08:36:54.940Z,51616.88
2023-05-16T08:39:27.291Z,51611.66
2023-05-16T08:41:59.234Z,51616.88
2023-05-16T08:44:31.605Z,51617.29
2023-05-16T08:47:09.292Z,51609.65
2023-05-16T08:49:42.095Z,51609.65
2023-05-16T08:52:13.724Z,51595.99
2023-05-16T08:54:48.527Z,51611.66
2023-05-16T08:57:24.372Z,51595.19
2023-05-16T08:59:59.260Z,51583.93
2023-05-16T09:02:31.205Z,51579.91
2023-05-16T09:05:02.982Z,51581.52
2023-05-16T09:07:34.793Z,51587.55
2023-05-16T09:10:07.370Z,51581.52
2023-05-16T09:12:38.834Z,51573.49
2023-05-16T09:15:12.041Z,51581.93
2023-05-16T09:17:46.939Z,51573.89
2023-05-16T09:20:20.482Z,51580.72
2023-05-16T09:22:56.355Z,51580.73
2023-05-16T09:25:32.587Z,51590.77
2023-05-16T09:28:04.336Z,51588.35
2023-05-16T09:30:37.408Z,51586.75
2023-05-16T09:33:09.789Z,51593.98
2023-05-16T09:35:45.384Z,51580.72
2023-05-16T09:38:20.756Z,51598.80
2023-05-16T09:40:53.172Z,51588.76
2023-05-16T09:43:26.553Z,51584.74
2023-05-16T09:46:00.578Z,51594.38
2023-05-16T09:48:32.119Z,51589.56
2023-05-16T09:51:04.808Z,51584.34
2023-05-16T09:53:36.332Z,51580.32
2023-05-16T09:56:09.138Z,51573.49
2023-05-16T09:58:41.731Z,51563.45
2023-05-16T10:01:13.453Z,51569.47
2023-05-16T10:03:45.345Z,51558.22
2023-05-16T10:06:17.404Z,51571.08
2023-05-16T10:08:48.935Z,51574.70
2023-05-16T10:11:20.559Z,51563.04
2023-05-16T10:13:53.604Z,51559.02
2023-05-16T10:16:25.585Z,51564.65
2023-05-16T10:18:57.467Z,51587.15
2023-05-16T10:21:29.951Z,51576.70
2023-05-16T10:24:03.552Z,51596.79
2023-05-16T10:26:35.459Z,51580.72
2023-05-16T10:29:07.713Z,51579.12
2023-05-16T10:31:39.135Z,51582.73
2023-05-16T10:34:09.121Z,51575.90
2023-05-16T10:36:40.846Z,51590.77
2023-05-16T10:39:12.804Z,51596.79
2023-05-16T10:41:44.913Z,51567.06
2023-05-16T10:44:17.748Z,51578.31
2023-05-16T10:46:49.897Z,51565.46
2023-05-16T10:49:25.552Z,51571.08
2023-05-16T10:52:11.029Z,51573.49
2023-05-16T10:54:44.080Z,51562.64
2023-05-16T10:57:17.905Z,51552.20
2023-05-16T10:59:50.213Z,51566.66
2023-05-16T11:02:29.737Z,51565.85
2023-05-16T11:05:02.163Z,51575.50
2023-05-16T11:07:36.336Z,51571.88
2023-05-16T11:10:10.279Z,51582.32
2023-05-16T11:12:46.708Z,51582.73
2023-05-16T11:15:27.368Z,51598.40
2023-05-16T11:18:09.996Z,51599.21
2023-05-16T11:20:41.646Z,51606.84
2023-05-16T11:23:27.933Z,51609.65
2023-05-16T11:26:00.918Z,51628.94
2023-05-16T11:28:32.628Z,51617.69
2023-05-16T11:31:05.713Z,51615.27
2023-05-16T11:33:37.896Z,51591.17
2023-05-16T11:38:45.086Z,51601.62
2023-05-16T11:41:18.030Z,51594.38
2023-05-16T11:43:49.719Z,51616.88
2023-05-16T11:46:21.251Z,51612.87
2023-05-16T11:48:53.471Z,51621.70
2023-05-16T11:51:25.268Z,51630.95
2023-05-16T11:53:57.991Z,51622.91
2023-05-16T11:56:29.508Z,51631.34
2023-05-16T11:59:00.030Z,51632.96
2023-05-16T12:01:38.734Z,51641.79
2023-05-16T12:04:13.915Z,51625.32
2023-05-16T12:06:45.817Z,51641.79
2023-05-16T12:09:18.622Z,51632.55
2023-05-16T12:11:50.889Z,51647.42
2023-05-16T12:14:22.778Z,51618.09
2023-05-16T12:16:55.618Z,51619.70
2023-05-16T12:19:27.542Z,51633.76
2023-05-16T12:21:59.813Z,51637.78
2023-05-16T12:24:34.940Z,51627.33
2023-05-16T12:27:07.042Z,51658.27
2023-05-16T12:29:38.602Z,51651.04
2023-05-16T12:32:10.507Z,51643.80
2023-05-16T12:34:42.788Z,51639.79
2023-05-16T12:37:14.295Z,51652.64
2023-05-16T12:39:44.169Z,51640.19
2023-05-16T12:42:17.144Z,51657.06
2023-05-16T12:44:49.575Z,51644.21
2023-05-16T12:47:22.283Z,51645.01
2023-05-16T12:49:54.662Z,51648.62
2023-05-16T12:52:27.243Z,51639.79
2023-05-16T12:54:58.739Z,51658.27
2023-05-16T12:57:28.981Z,51643.41
2023-05-16T13:00:01.033Z,51657.87
2023-05-16T13:02:33.166Z,51650.63
2023-05-16T13:05:04.889Z,51665.50
2023-05-16T13:07:36.249Z,51690.82
2023-05-16T13:10:10.537Z,51670.73
2023-05-16T13:12:42.422Z,51680.77
2023-05-16T13:15:15.370Z,51692.02
2023-05-16T13:17:48.524Z,51689.21
2023-05-16T13:20:21.572Z,51695.24
2023-05-16T13:22:53.048Z,51699.65
2023-05-16T13:25:24.828Z,51708.49
2023-05-16T13:27:56.285Z,51706.08
2023-05-16T13:30:29.264Z,51714.93
2023-05-16T13:33:01.164Z,51736.62
2023-05-16T13:35:32.989Z,51723.76
2023-05-16T13:38:05.237Z,51730.99
2023-05-16T13:40:37.072Z,51728.99
2023-05-16T13:43:08.551Z,51726.18
2023-05-16T13:45:40.105Z,51734.21
2023-05-16T13:48:10.175Z,51748.27
2023-05-16T13:50:44.174Z,51733.01
2023-05-16T13:53:16.146Z,51735.42
2023-05-16T13:55:47.648Z,51748.27
2023-05-16T13:58:17.504Z,51742.25
2023-05-16T14:00:49.279Z,51739.43
2023-05-16T14:03:21.219Z,51742.65
2023-05-16T14:05:53.006Z,51736.62
2023-05-16T14:08:24.412Z,51741.45
2023-05-16T14:10:55.855Z,51743.86
2023-05-16T14:13:27.319Z,51738.63
2023-05-16T14:15:58.768Z,51751.89
2023-05-16T14:18:30.986Z,51735.01
2023-05-16T14:21:02.506Z,51751.89
2023-05-16T14:23:33.833Z,51752.29
2023-05-16T14:26:07.524Z,51751.09
2023-05-16T14:28:39.723Z,51748.27
2023-05-16T14:31:11.773Z,51740.24
2023-05-16T14:33:44.244Z,51751.49
2023-05-16T14:36:16.619Z,51749.48
2023-05-16T14:38:49.438Z,51764.75
2023-05-16T14:41:21.281Z,51739.43
2023-05-16T14:43:52.825Z,51759.52
2023-05-16T14:46:22.816Z,51751.89
2023-05-16T14:48:54.707Z,51760.33
2023-05-16T14:51:26.130Z,51759.12
2023-05-16T14:53:56.244Z,51773.19
2023-05-16T14:56:28.462Z,51774.39
2023-05-16T14:59:00.621Z,51759.52
2023-05-16T15:01:32.254Z,51763.14
2023-05-16T15:04:03.873Z,51779.21
2023-05-16T15:06:33.767Z,51784.84
2023-05-16T15:09:06.175Z,51761.94
2023-05-16T15:11:37.742Z,51768.77
2023-05-16T15:14:09.297Z,51770.37
2023-05-16T15:16:41.053Z,51760.33
2023-05-16T15:19:12.728Z,51758.72
2023-05-16T15:21:42.637Z,51775.60
2023-05-16T15:24:14.751Z,51768.77
2023-05-16T15:26:46.408Z,51789.66
2023-05-16T15:29:17.877Z,51774.39
2023-05-16T15:31:49.520Z,51786.45
2023-05-16T15:34:21.252Z,51790.06
2023-05-16T15:36:51.115Z,51782.02
2023-05-16T15:39:22.530Z,51780.02
2023-05-16T15:42:08.572Z,51789.66
2023-05-16T15:44:41.873Z,51785.24
2023-05-16T15:47:12.158Z,51795.69
2023-05-16T15:49:43.792Z,51790.06
2023-05-16T15:52:13.911Z,51784.43
2023-05-16T15:54:45.706Z,51788.46
2023-05-16T15:57:17.382Z,51797.30
2023-05-16T15:59:47.371Z,51788.86
2023-05-16T16:02:19.118Z,51791.27
2023-05-16T16:04:49.940Z,51800.91
2023-05-16T16:07:21.340Z,51806.54
2023-05-16T16:09:52.829Z,51807.34
2023-05-16T16:12:24.315Z,51789.26
2023-05-16T16:14:56.286Z,51802.12
2023-05-16T16:17:28.290Z,51805.73
2023-05-16T16:19:59.710Z,51806.13
2023-05-16T16:22:31.343Z,51819.80
2023-05-16T16:25:03.894Z,51826.63
2023-05-16T16:27:35.360Z,51812.57
2023-05-16T16:30:08.722Z,51818.19
2023-05-16T16:32:40.420Z,51807.74
2023-05-16T16:35:10.591Z,51818.99
2023-05-16T16:37:48.732Z,51827.43
2023-05-16T16:40:26.340Z,51808.55
2023-05-16T16:43:01.547Z,51821.00
2023-05-16T16:45:33.453Z,51823.01
2023-05-16T16:48:05.906Z,51823.01
2023-05-16T16:50:37.593Z,51808.14
2023-05-16T16:53:09.026Z,51827.83
2023-05-16T16:55:41.130Z,51818.19
2023-05-16T16:58:12.699Z,51818.99
2023-05-16T17:00:44.814Z,51813.37
2023-05-16T17:03:16.398Z,51816.18
2023-05-16T17:05:46.321Z,51830.65
2023-05-16T17:08:20.065Z,51830.24
2023-05-16T17:10:52.003Z,51826.63
2023-05-16T17:13:23.771Z,51826.63
2023-05-16T17:15:55.152Z,51829.44
2023-05-16T17:18:26.914Z,51840.29
2023-05-16T17:20:58.454Z,51839.09
2023-05-16T17:23:28.427Z,51826.23
2023-05-16T17:25:59.915Z,51845.51
2023-05-16T17:28:32.738Z,51839.09
2023-05-16T17:31:04.463Z,51842.70
2023-05-16T17:33:35.919Z,51844.71
2023-05-16T17:36:08.467Z,51832.25
2023-05-16T17:38:39.918Z,51837.07
2023-05-16T17:41:11.483Z,51833.86
2023-05-16T17:43:42.938Z,51840.29
2023-05-16T17:46:16.927Z,51836.68
2023-05-16T17:48:48.445Z,51846.72
2023-05-16T17:51:19.983Z,51838.28
2023-05-16T17:53:51.662Z,51856.77
2023-05-16T17:56:21.846Z,51849.53
2023-05-16T17:58:53.641Z,51830.24
2023-05-16T18:01:25.219Z,51850.74
2023-05-16T18:03:55.423Z,51844.71
2023-05-16T18:06:27.135Z,51839.89
2023-05-16T18:08:58.918Z,51839.48
2023-05-16T18:11:30.787Z,51837.88
2023-05-16T18:14:01.100Z,51840.69
2023-05-16T18:16:33.285Z,51851.95
2023-05-16T18:19:05.722Z,51859.18
2023-05-16T18:21:38.683Z,51866.81
2023-05-16T18:24:13.406Z,51857.16
2023-05-16T18:26:48.702Z,51836.27
2023-05-16T18:29:20.480Z,51860.38
2023-05-16T18:31:52.107Z,51841.09
2023-05-16T18:34:23.621Z,51847.12
2023-05-16T18:36:57.677Z,51852.75
2023-05-16T18:39:29.244Z,51864.40
2023-05-16T18:41:59.159Z,51871.23
2023-05-16T18:44:30.730Z,51851.54
2023-05-16T18:47:02.378Z,51863.59
2023-05-16T18:49:34.515Z,51857.57
2023-05-16T18:52:04.449Z,51857.57
2023-05-16T18:54:35.983Z,51858.37
2023-05-16T18:57:08.443Z,51857.57
2023-05-16T18:59:39.909Z,51850.34
2023-05-16T19:02:11.645Z,51857.57
2023-05-16T19:04:41.517Z,51852.75
2023-05-16T19:07:13.206Z,51861.59
2023-05-16T19:09:43.308Z,51879.27
2023-05-16T19:12:14.760Z,51863.59
2023-05-16T19:14:46.552Z,51861.99
2023-05-16T19:17:18.152Z,51869.22
2023-05-16T19:19:48.163Z,51869.22
2023-05-16T19:22:19.627Z,51880.07
2023-05-16T19:24:51.809Z,51864.00
2023-05-16T19:27:23.655Z,51852.74
2023-05-16T19:29:55.048Z,51872.44
2023-05-16T19:32:26.611Z,51881.68
2023-05-16T19:34:56.888Z,51879.67
2023-05-16T19:37:29.265Z,51866.81
2023-05-16T19:40:00.790Z,51882.08
2023-05-16T19:42:32.835Z,51866.81
2023-05-16T19:45:04.975Z,51876.05
2023-05-16T19:47:37.518Z,51871.23
2023-05-16T19:50:11.325Z,51878.46
2023-05-16T19:52:43.058Z,51891.32
2023-05-16T19:55:13.177Z,51886.90
2023-05-16T19:57:44.549Z,51890.11
2023-05-16T20:00:17.830Z,51886.50
2023-05-16T20:02:49.334Z,51882.48
2023-05-16T20:05:23.218Z,51872.03
2023-05-16T20:07:56.566Z,51889.31
2023-05-16T20:10:28.624Z,51900.16
2023-05-16T20:13:00.237Z,51874.45
2023-05-16T20:15:30.865Z,51889.31
2023-05-16T20:18:03.613Z,51894.54
2023-05-16T20:20:35.676Z,51888.51
2023-05-16T20:23:07.851Z,51882.88
2023-05-16T20:25:40.306Z,51876.05
2023-05-16T20:28:12.117Z,51899.36
2023-05-16T20:30:42.013Z,51888.51
2023-05-16T20:33:13.562Z,51887.30
2023-05-16T20:35:43.551Z,51889.31
2023-05-16T20:38:15.133Z,51890.12
2023-05-16T20:40:44.921Z,51890.12
2023-05-16T20:43:16.491Z,51903.38
2023-05-16T20:45:48.061Z,51895.74
2023-05-16T20:48:19.996Z,51901.77
2023-05-16T20:50:51.912Z,51895.34
2023-05-16T20:53:23.498Z,51890.12
2023-05-16T20:55:53.441Z,51897.75
2023-05-16T20:58:25.111Z,51888.51
2023-05-16T21:00:55.578Z,51882.08
2023-05-16T21:03:27.494Z,51905.39
2023-05-16T21:05:59.401Z,51894.13
2023-05-16T21:08:31.539Z,51898.55
2023-05-16T21:11:03.948Z,51889.31
2023-05-16T21:13:33.844Z,51903.38
2023-05-16T21:16:05.838Z,51890.92
2023-05-16T21:18:37.579Z,51903.78
2023-05-16T21:21:09.542Z,51903.77
2023-05-16T21:23:41.784Z,51906.59
2023-05-16T21:26:13.341Z,51911.01
2023-05-16T21:28:54.414Z,51909.80
2023-05-16T21:31:26.880Z,51898.96
2023-05-16T21:33:58.624Z,51888.11
2023-05-16T21:36:30.154Z,51902.98
2023-05-16T21:39:02.083Z,51912.21
2023-05-16T21:41:34.382Z,51913.82
2023-05-16T21:44:06.544Z,51900.57
2023-05-16T21:46:37.929Z,51915.43
2023-05-16T21:49:09.659Z,51928.29
2023-05-16T21:51:41.301Z,51910.61
2023-05-16T21:54:13.214Z,51897.75
2023-05-16T21:56:44.865Z,51904.18
2023-05-16T21:59:16.480Z,51913.43
2023-05-16T22:01:48.640Z,51921.46
2023-05-16T22:04:20.508Z,51919.85
2023-05-16T22:06:52.292Z,51930.70
2023-05-16T22:09:24.079Z,51916.64
2023-05-16T22:11:56.076Z,51940.74
2023-05-16T22:14:27.822Z,51908.20
2023-05-16T22:16:59.315Z,51916.64
2023-05-16T22:19:31.049Z,51929.50
2023-05-16T22:22:01.191Z,51920.26
2023-05-16T22:24:32.712Z,51914.22
2023-05-16T22:27:04.399Z,51933.11
2023-05-16T22:29:38.406Z,51913.82
2023-05-16T22:32:10.992Z,51921.05
2023-05-16T22:34:42.786Z,51921.46
2023-05-16T22:37:14.266Z,51935.12
2023-05-16T22:39:45.846Z,51932.71
2023-05-16T22:42:17.643Z,51931.91
2023-05-16T22:44:49.108Z,51921.86
2023-05-16T22:47:21.267Z,51922.26
2023-05-16T22:49:52.780Z,51945.16
2023-05-16T22:52:24.172Z,51912.21
2023-05-16T22:54:55.677Z,51929.49
2023-05-16T22:57:27.419Z,51929.90
2023-05-16T23:00:00.460Z,51933.51
2023-05-16T23:02:32.060Z,51933.51
2023-05-16T23:05:02.102Z,51937.53
2023-05-16T23:07:33.767Z,51936.73
2023-05-16T23:10:04.238Z,51928.29
2023-05-16T23:12:36.039Z,51940.75
2023-05-16T23:15:10.390Z,51939.14
2023-05-16T23:17:42.240Z,51941.55
2023-05-16T23:20:14.593Z,51928.70
2023-05-16T23:22:46.153Z,51933.11
2023-05-16T23:25:17.587Z,51937.53
2023-05-16T23:27:49.484Z,51943.96
2023-05-16T23:30:21.272Z,51934.32
2023-05-16T23:32:53.668Z,51939.14
2023-05-16T23:35:25.835Z,51941.95
2023-05-16T23:37:57.639Z,51929.90
2023-05-16T23:40:29.421Z,51951.59
2023-05-16T23:42:59.478Z,51919.85
2023-05-16T23:45:31.135Z,51949.59
2023-05-16T23:48:03.011Z,51925.88
2023-05-16T23:50:37.499Z,51941.55
2023-05-16T23:53:08.936Z,51918.24
2023-05-16T23:55:40.563Z,51929.49
2023-05-16T23:58:12.133Z,51947.58
